createdAt,value
2023-05-08T00:01:23.417Z,2.28
2023-05-08T00:03:51.775Z,2.15
2023-05-08T00:06:18.418Z,2.25
2023-05-08T00:08:45.158Z,1.98
2023-05-08T00:11:11.577Z,4.20
2023-05-08T00:13:38.069Z,3.97
2023-05-08T00:16:04.648Z,4.32
2023-05-08T00:18:31.185Z,3.15
2023-05-08T00:20:57.569Z,3.45
2023-05-08T00:23:23.990Z,2.88
2023-05-08T00:25:50.373Z,3.92
2023-05-08T00:28:16.891Z,4.38
2023-05-08T00:30:43.632Z,3.53
2023-05-08T00:33:11.450Z,4.15
2023-05-08T00:35:42.898Z,5.70
2023-05-08T00:38:09.989Z,4.55
2023-05-08T00:40:36.623Z,4.72
2023-05-08T00:43:03.138Z,3.47
2023-05-08T00:45:34.517Z,4.07
2023-05-08T00:48:02.338Z,3.60
2023-05-08T00:50:29.078Z,3.92
2023-05-08T00:52:57.105Z,4.03
2023-05-08T00:55:24.419Z,4.18
2023-05-08T00:57:52.584Z,3.80
2023-05-08T01:00:20.719Z,4.25
2023-05-08T01:02:47.548Z,3.03
2023-05-08T01:05:14.081Z,2.95
2023-05-08T01:07:40.553Z,2.83
2023-05-08T01:10:07.502Z,2.60
2023-05-08T01:13:12.991Z,2.70
2023-05-08T01:15:47.492Z,4.05
2023-05-08T01:18:28.004Z,3.15
2023-05-08T01:21:04.042Z,2.22
2023-05-08T01:23:53.818Z,2.45
2023-05-08T01:29:19.692Z,2.65
2023-05-08T01:32:12.343Z,3.05
2023-05-08T01:34:46.758Z,4.40
2023-05-08T01:37:16.991Z,3.63
2023-05-08T01:42:36.624Z,4.65
2023-05-08T01:45:12.818Z,4.47
2023-05-08T01:47:41.208Z,4.15
2023-05-08T01:50:19.958Z,3.83
2023-05-08T01:52:58.301Z,3.90
2023-05-08T01:55:30.504Z,5.40
2023-05-08T01:57:58.793Z,4.32
2023-05-08T02:00:28.491Z,3.85
2023-05-08T02:02:56.919Z,5.40
2023-05-08T02:05:25.552Z,4.75
2023-05-08T02:07:53.130Z,5.38
2023-05-08T02:10:22.757Z,4.22
2023-05-08T02:12:50.299Z,4.30
2023-05-08T02:15:18.761Z,4.30
2023-05-08T02:17:49.516Z,5.25
2023-05-08T02:20:16.551Z,4.65
2023-05-08T02:22:50.270Z,4.03
2023-05-08T02:25:17.888Z,4.38
2023-05-08T02:27:47.439Z,3.22
2023-05-08T02:30:15.179Z,3.90
2023-05-08T02:32:46.516Z,4.05
2023-05-08T02:35:15.983Z,4.70
2023-05-08T02:37:55.197Z,3.28
2023-05-08T02:40:24.522Z,3.03
2023-05-08T02:42:51.180Z,4.15
2023-05-08T02:45:18.150Z,3.78
2023-05-08T02:48:07.110Z,4.97
2023-05-08T02:51:00.054Z,4.30
2023-05-08T02:53:35.931Z,4.28
2023-05-08T02:56:11.146Z,4.25
2023-05-08T02:58:59.981Z,5.10
2023-05-08T03:01:31.533Z,3.30
2023-05-08T03:04:19.336Z,4.90
2023-05-08T03:06:47.919Z,4.47
2023-05-08T03:09:26.177Z,4.40
2023-05-08T03:12:09.689Z,4.00
2023-05-08T03:14:44.424Z,3.47
2023-05-08T03:17:14.693Z,3.45
2023-05-08T03:22:11.597Z,4.32
2023-05-08T03:24:39.846Z,3.85
2023-05-08T03:27:08.284Z,4.00
2023-05-08T03:29:38.271Z,4.97
2023-05-08T03:32:06.112Z,3.58
2023-05-08T03:34:36.520Z,4.65
2023-05-08T03:37:03.303Z,3.42
2023-05-08T03:39:29.877Z,2.90
2023-05-08T03:41:56.878Z,2.60
2023-05-08T03:44:24.813Z,2.60
2023-05-08T03:46:55.791Z,3.30
2023-05-08T03:49:25.145Z,4.43
2023-05-08T03:51:54.604Z,3.20
2023-05-08T03:54:25.224Z,4.72
2023-05-08T03:56:54.477Z,3.25
2023-05-08T03:59:38.304Z,4.75
2023-05-08T04:02:35.607Z,3.80
2023-05-08T04:05:26.729Z,3.33
2023-05-08T04:08:03.067Z,3.58
2023-05-08T04:10:36.363Z,4.20
2023-05-08T04:13:08.636Z,3.88
2023-05-08T04:16:06.648Z,3.28
2023-05-08T04:18:37.992Z,4.50
2023-05-08T04:21:10.942Z,3.60
2023-05-08T04:23:40.206Z,4.65
2023-05-08T04:26:08.858Z,4.95
2023-05-08T04:28:35.661Z,4.43
2023-05-08T04:31:04.728Z,7.05
2023-05-08T04:33:34.129Z,3.17
2023-05-08T04:36:04.218Z,4.47
2023-05-08T04:38:31.722Z,3.38
2023-05-08T04:40:58.963Z,3.20
2023-05-08T04:43:25.549Z,4.53
2023-05-08T04:45:52.023Z,4.28
2023-05-08T04:48:18.996Z,3.75
2023-05-08T04:50:45.692Z,4.22
2023-05-08T04:53:12.282Z,3.80
2023-05-08T04:55:39.035Z,3.58
2023-05-08T04:58:05.660Z,4.68
2023-05-08T05:00:32.109Z,3.17
2023-05-08T05:02:58.658Z,4.50
2023-05-08T05:05:25.269Z,3.65
2023-05-08T05:07:52.059Z,4.45
2023-05-08T05:10:19.714Z,4.70
2023-05-08T05:12:46.314Z,4.00
2023-05-08T05:15:13.070Z,4.30
2023-05-08T05:17:39.865Z,3.88
2023-05-08T05:20:08.575Z,5.63
2023-05-08T05:22:35.060Z,4.10
2023-05-08T05:25:01.492Z,6.05
2023-05-08T05:27:28.443Z,6.15
2023-05-08T05:29:55.035Z,12.98
2023-05-08T05:32:21.566Z,19.98
2023-05-08T05:34:48.259Z,50.00
2023-05-08T05:37:14.764Z,100.43
2023-05-08T05:39:41.307Z,156.25
2023-05-08T05:42:07.771Z,60.35
2023-05-08T05:44:34.333Z,13.45
2023-05-08T05:47:00.791Z,16.52
2023-05-08T05:49:27.612Z,5.97
2023-05-08T05:51:54.044Z,6.50
2023-05-08T05:54:20.554Z,19.13
2023-05-08T05:56:47.022Z,19.58
2023-05-08T05:59:13.557Z,30.02
2023-05-08T06:01:40.627Z,9.18
2023-05-08T06:04:07.312Z,11.65
2023-05-08T06:06:33.879Z,9.20
2023-05-08T06:09:00.587Z,8.38
2023-05-08T06:11:27.226Z,9.93
2023-05-08T06:13:53.701Z,12.43
2023-05-08T06:16:22.935Z,8.48
2023-05-08T06:18:49.614Z,9.23
2023-05-08T06:21:16.818Z,8.40
2023-05-08T06:23:43.256Z,9.40
2023-05-08T06:26:09.746Z,10.70
2023-05-08T06:28:36.126Z,10.25
2023-05-08T06:31:02.662Z,8.55
2023-05-08T06:33:29.904Z,10.05
2023-05-08T06:35:56.377Z,10.80
2023-05-08T06:38:22.901Z,9.18
2023-05-08T06:40:50.680Z,10.50
2023-05-08T06:43:17.236Z,9.43
2023-05-08T06:45:44.582Z,10.50
2023-05-08T06:48:10.986Z,9.95
2023-05-08T06:50:38.156Z,11.15
2023-05-08T06:53:04.775Z,12.40
2023-05-08T06:55:31.245Z,10.10
2023-05-08T06:57:57.672Z,9.10
2023-05-08T07:00:24.348Z,10.18
2023-05-08T07:02:52.113Z,9.32
2023-05-08T07:05:19.905Z,9.52
2023-05-08T07:07:46.614Z,9.30
2023-05-08T07:10:13.041Z,9.38
2023-05-08T07:12:39.529Z,11.00
2023-05-08T07:15:17.856Z,8.95
2023-05-08T07:17:51.758Z,9.60
2023-05-08T07:20:18.318Z,10.75
2023-05-08T07:22:44.706Z,12.35
2023-05-08T07:25:11.276Z,11.13
2023-05-08T07:27:38.262Z,10.20
2023-05-08T07:30:05.604Z,9.65
2023-05-08T07:32:32.179Z,12.60
2023-05-08T07:34:58.600Z,12.23
2023-05-08T07:37:25.337Z,10.38
2023-05-08T07:39:51.810Z,8.82
2023-05-08T07:42:18.293Z,11.07
2023-05-08T07:44:53.586Z,11.02
2023-05-08T07:47:21.451Z,11.25
2023-05-08T07:49:47.995Z,10.13
2023-05-08T07:52:14.441Z,9.13
2023-05-08T07:54:40.825Z,12.73
2023-05-08T07:57:07.258Z,10.65
2023-05-08T07:59:33.769Z,11.05
2023-05-08T08:02:00.275Z,11.32
2023-05-08T08:04:27.821Z,12.63
2023-05-08T08:06:55.157Z,11.32
2023-05-08T08:09:21.577Z,10.55
2023-05-08T08:11:48.010Z,12.00
2023-05-08T08:14:14.431Z,12.15
2023-05-08T08:16:40.896Z,12.45
2023-05-08T08:19:07.552Z,11.75
2023-05-08T08:21:34.523Z,11.32
2023-05-08T08:24:01.311Z,11.65
2023-05-08T08:26:27.742Z,11.65
2023-05-08T08:28:54.212Z,12.50
2023-05-08T08:31:20.768Z,10.48
2023-05-08T08:33:47.162Z,11.13
2023-05-08T08:36:14.449Z,12.75
2023-05-08T08:38:41.032Z,11.18
2023-05-08T08:41:07.734Z,11.45
2023-05-08T08:43:34.733Z,12.90
2023-05-08T08:46:15.683Z,13.95
2023-05-08T08:48:46.306Z,13.75
2023-05-08T08:51:23.440Z,12.98
2023-05-08T08:53:58.769Z,11.48
2023-05-08T08:56:25.342Z,14.70
2023-05-08T08:58:56.897Z,13.25
2023-05-08T09:01:24.660Z,12.52
2023-05-08T09:03:51.294Z,14.93
2023-05-08T09:06:19.120Z,11.80
2023-05-08T09:08:46.804Z,13.27
2023-05-08T09:11:13.284Z,14.63
2023-05-08T09:13:39.765Z,13.77
2023-05-08T09:16:06.828Z,12.73
2023-05-08T09:18:33.248Z,12.90
2023-05-08T09:21:01.421Z,12.90
2023-05-08T09:23:27.948Z,12.00
2023-05-08T09:25:54.329Z,11.70
2023-05-08T09:28:26.990Z,12.77
2023-05-08T09:30:58.926Z,13.80
2023-05-08T09:33:27.508Z,13.13
2023-05-08T09:35:55.674Z,12.13
2023-05-08T09:38:41.832Z,12.50
2023-05-08T09:41:14.309Z,11.07
2023-05-08T09:43:42.244Z,10.93
2023-05-08T09:46:25.274Z,12.32
2023-05-08T09:48:57.404Z,10.40
2023-05-08T09:51:25.414Z,10.88
2023-05-08T09:53:53.217Z,10.63
2023-05-08T09:56:39.365Z,11.65
2023-05-08T09:59:24.659Z,11.02
2023-05-08T10:01:55.911Z,13.23
2023-05-08T10:04:36.171Z,13.00
2023-05-08T10:07:03.229Z,12.07
2023-05-08T10:09:42.475Z,11.98
2023-05-08T10:12:16.491Z,11.57
2023-05-08T10:14:46.059Z,12.45
2023-05-08T10:17:15.515Z,12.00
2023-05-08T10:19:46.044Z,12.32
2023-05-08T10:22:15.711Z,15.05
2023-05-08T10:27:27.841Z,12.63
2023-05-08T10:29:56.312Z,13.60
2023-05-08T10:32:24.640Z,11.10
2023-05-08T10:34:59.575Z,11.65
2023-05-08T10:37:29.716Z,14.10
2023-05-08T10:39:57.992Z,13.57
2023-05-08T10:42:26.430Z,13.25
2023-05-08T10:44:54.140Z,13.35
2023-05-08T10:48:03.442Z,12.65
2023-05-08T10:50:48.642Z,15.80
2023-05-08T10:53:31.798Z,14.40
2023-05-08T10:55:58.886Z,15.38
2023-05-08T10:58:33.678Z,16.10
2023-05-08T11:01:00.041Z,15.48
2023-05-08T11:03:32.627Z,17.75
2023-05-08T11:06:00.932Z,20.33
2023-05-08T11:08:28.753Z,19.92
2023-05-08T11:11:01.794Z,18.23
2023-05-08T11:13:33.422Z,16.85
2023-05-08T11:15:59.967Z,17.92
2023-05-08T11:18:32.479Z,18.90
2023-05-08T11:21:20.502Z,20.63
2023-05-08T11:23:57.023Z,21.35
2023-05-08T11:26:39.429Z,18.83
2023-05-08T11:29:17.492Z,22.13
2023-05-08T11:31:51.332Z,22.63
2023-05-08T11:34:43.144Z,20.38
2023-05-08T11:37:24.294Z,20.52
2023-05-08T11:39:51.103Z,21.73
2023-05-08T11:42:29.376Z,19.17
2023-05-08T11:45:08.028Z,20.65
2023-05-08T11:47:45.101Z,19.10
2023-05-08T11:50:13.376Z,21.58
2023-05-08T11:52:41.729Z,22.92
2023-05-08T11:55:09.976Z,19.90
2023-05-08T11:57:36.724Z,22.58
2023-05-08T12:00:07.191Z,20.95
2023-05-08T12:02:43.121Z,23.73
2023-05-08T12:05:11.120Z,20.73
2023-05-08T12:07:47.493Z,24.52
2023-05-08T12:12:43.436Z,23.67
2023-05-08T12:15:12.786Z,23.05
2023-05-08T12:17:39.309Z,22.13
2023-05-08T12:20:14.491Z,20.55
2023-05-08T12:22:42.274Z,23.55
2023-05-08T12:25:11.801Z,22.95
2023-05-08T12:27:38.768Z,21.75
2023-05-08T12:30:10.599Z,21.42
2023-05-08T12:32:39.310Z,19.48
2023-05-08T12:35:08.194Z,22.17
2023-05-08T12:37:34.868Z,19.48
2023-05-08T12:40:01.631Z,21.33
2023-05-08T12:42:43.481Z,21.02
2023-05-08T12:45:27.971Z,22.25
2023-05-08T12:47:59.028Z,18.63
2023-05-08T12:50:25.917Z,20.35
2023-05-08T12:52:53.139Z,19.63
2023-05-08T12:55:26.624Z,17.38
2023-05-08T12:58:14.388Z,15.93
2023-05-08T13:00:43.503Z,16.70
2023-05-08T13:03:12.466Z,17.15
2023-05-08T13:05:44.192Z,19.48
2023-05-08T13:08:11.093Z,18.85
2023-05-08T13:10:54.931Z,16.42
2023-05-08T13:13:23.573Z,15.68
2023-05-08T13:15:51.378Z,14.90
2023-05-08T13:18:18.535Z,16.30
2023-05-08T13:20:45.261Z,16.52
2023-05-08T13:23:12.744Z,17.00
2023-05-08T13:25:40.868Z,14.93
2023-05-08T13:28:08.749Z,14.88
2023-05-08T13:30:36.620Z,16.02
2023-05-08T13:33:04.258Z,16.00
2023-05-08T13:35:31.217Z,15.90
2023-05-08T13:37:58.567Z,15.00
2023-05-08T13:40:26.077Z,16.05
2023-05-08T13:42:52.936Z,17.02
2023-05-08T13:45:19.640Z,15.35
2023-05-08T13:47:47.549Z,15.23
2023-05-08T13:50:16.308Z,15.63
2023-05-08T13:52:45.817Z,16.38
2023-05-08T13:57:40.549Z,15.45
2023-05-08T14:00:08.874Z,18.42
2023-05-08T14:02:35.801Z,16.23
2023-05-08T14:05:02.238Z,17.27
2023-05-08T14:07:29.950Z,14.73
2023-05-08T14:09:56.477Z,16.45
2023-05-08T14:12:23.081Z,16.48
2023-05-08T14:14:49.506Z,14.73
2023-05-08T14:17:16.008Z,16.38
2023-05-08T14:19:42.396Z,16.67
2023-05-08T14:22:08.802Z,16.95
2023-05-08T14:24:35.346Z,17.67
2023-05-08T14:27:05.667Z,17.38
2023-05-08T14:29:35.351Z,18.05
2023-05-08T14:32:02.118Z,17.15
2023-05-08T14:34:28.716Z,16.00
2023-05-08T14:36:55.198Z,18.75
2023-05-08T14:39:21.810Z,16.20
2023-05-08T14:42:10.352Z,17.40
2023-05-08T14:44:35.009Z,18.90
2023-05-08T14:47:01.506Z,20.40
2023-05-08T14:51:57.362Z,19.70
2023-05-08T14:54:23.970Z,17.67
2023-05-08T14:56:50.569Z,16.88
2023-05-08T14:59:17.023Z,15.27
2023-05-08T15:01:43.612Z,15.20
2023-05-08T15:04:10.890Z,16.20
2023-05-08T15:06:40.165Z,16.20
2023-05-08T15:09:09.728Z,16.58
2023-05-08T15:11:37.164Z,15.07
2023-05-08T15:14:04.729Z,14.43
2023-05-08T15:16:31.281Z,17.13
2023-05-08T15:18:58.013Z,16.80
2023-05-08T15:21:26.757Z,16.83
2023-05-08T15:23:56.119Z,14.18
2023-05-08T15:26:22.783Z,18.02
2023-05-08T15:28:49.414Z,14.85
2023-05-08T15:31:16.153Z,16.30
2023-05-08T15:33:44.977Z,14.77
2023-05-08T15:36:12.828Z,15.50
2023-05-08T15:38:40.939Z,14.35
2023-05-08T15:41:11.009Z,15.50
2023-05-08T15:43:39.390Z,15.18
2023-05-08T15:46:06.034Z,14.88
2023-05-08T15:48:32.816Z,15.00
2023-05-08T15:50:59.252Z,15.02
2023-05-08T15:53:25.686Z,14.88
2023-05-08T15:55:52.081Z,14.75
2023-05-08T15:58:18.541Z,14.02
2023-05-08T16:00:45.658Z,14.18
2023-05-08T16:03:12.521Z,14.30
2023-05-08T16:05:39.528Z,16.90
2023-05-08T16:08:06.178Z,15.43
2023-05-08T16:10:32.584Z,15.45
2023-05-08T16:12:59.103Z,16.88
2023-05-08T16:15:25.668Z,15.25
2023-05-08T16:17:52.139Z,15.80
2023-05-08T16:20:18.732Z,14.07
2023-05-08T16:22:45.339Z,16.58
2023-05-08T16:25:11.859Z,16.45
2023-05-08T16:27:38.474Z,14.45
2023-05-08T16:30:05.624Z,16.25
2023-05-08T16:32:32.060Z,15.48
2023-05-08T16:34:58.581Z,16.88
2023-05-08T16:37:25.015Z,17.55
2023-05-08T16:39:51.412Z,18.67
2023-05-08T16:42:18.870Z,14.95
2023-05-08T16:44:45.342Z,15.93
2023-05-08T16:47:11.817Z,15.45
2023-05-08T16:49:38.399Z,15.20
2023-05-08T16:52:04.858Z,19.08
2023-05-08T16:54:31.280Z,17.77
2023-05-08T16:56:57.732Z,18.00
2023-05-08T16:59:24.176Z,18.65
2023-05-08T17:01:50.717Z,17.40
2023-05-08T17:04:17.210Z,17.15
2023-05-08T17:06:43.674Z,17.90
2023-05-08T17:09:10.151Z,18.23
2023-05-08T17:11:36.568Z,19.13
2023-05-08T17:14:03.023Z,22.20
2023-05-08T17:16:29.448Z,21.73
2023-05-08T17:18:55.883Z,20.73
2023-05-08T17:21:22.298Z,22.92
2023-05-08T17:23:48.773Z,20.65
2023-05-08T17:26:15.171Z,23.52
2023-05-08T17:28:41.578Z,22.92
2023-05-08T17:31:08.032Z,22.50
2023-05-08T17:33:34.526Z,24.55
2023-05-08T17:36:01.938Z,24.30
2023-05-08T17:38:28.351Z,24.92
2023-05-08T17:40:56.266Z,26.60
2023-05-08T17:43:22.752Z,26.38
2023-05-08T17:45:49.315Z,26.40
2023-05-08T17:48:17.017Z,24.77
2023-05-08T17:50:45.668Z,26.70
2023-05-08T17:53:12.379Z,27.33
2023-05-08T17:55:38.782Z,25.67
2023-05-08T17:58:05.286Z,26.58
2023-05-08T18:00:31.686Z,24.70
2023-05-08T18:02:58.299Z,22.10
2023-05-08T18:05:24.842Z,22.20
2023-05-08T18:07:52.150Z,24.65
2023-05-08T18:10:18.648Z,23.48
2023-05-08T18:12:45.227Z,25.33
2023-05-08T18:15:11.864Z,22.63
2023-05-08T18:17:38.329Z,23.13
2023-05-08T18:20:07.725Z,22.98
2023-05-08T18:22:34.813Z,21.23
2023-05-08T18:25:01.479Z,22.73
2023-05-08T18:27:28.436Z,21.17
2023-05-08T18:29:55.013Z,22.70
2023-05-08T18:32:21.614Z,21.88
2023-05-08T18:34:48.044Z,20.00
2023-05-08T18:37:14.428Z,22.20
2023-05-08T18:39:40.864Z,22.75
2023-05-08T18:42:07.288Z,21.60
2023-05-08T18:44:34.076Z,23.10
2023-05-08T18:47:01.648Z,20.60
2023-05-08T18:49:29.144Z,22.15
2023-05-08T18:51:55.645Z,20.08
2023-05-08T18:54:26.273Z,22.35
2023-05-08T18:56:55.802Z,18.98
2023-05-08T18:59:22.252Z,19.73
2023-05-08T19:01:50.192Z,20.88
2023-05-08T19:04:16.754Z,19.60
2023-05-08T19:06:43.275Z,20.50
2023-05-08T19:09:09.725Z,19.02
2023-05-08T19:11:36.178Z,19.10
2023-05-08T19:14:02.595Z,20.45
2023-05-08T19:16:29.226Z,20.40
2023-05-08T19:18:55.705Z,19.52
2023-05-08T19:21:22.155Z,20.60
2023-05-08T19:23:48.626Z,19.80
2023-05-08T19:26:15.612Z,19.05
2023-05-08T19:28:42.040Z,18.83
2023-05-08T19:31:08.462Z,16.02
2023-05-08T19:33:34.847Z,17.52
2023-05-08T19:36:01.315Z,16.67
2023-05-08T19:38:27.695Z,18.52
2023-05-08T19:40:57.554Z,18.95
2023-05-08T19:43:27.701Z,19.02
2023-05-08T19:45:55.357Z,18.15
2023-05-08T19:48:21.889Z,19.05
2023-05-08T19:50:48.378Z,20.30
2023-05-08T19:53:14.909Z,16.13
2023-05-08T19:55:41.385Z,17.35
2023-05-08T19:58:08.111Z,19.45
2023-05-08T20:00:34.766Z,19.40
2023-05-08T20:03:01.284Z,16.27
2023-05-08T20:05:27.798Z,15.40
2023-05-08T20:07:54.325Z,15.55
2023-05-08T20:10:20.854Z,14.43
2023-05-08T20:12:47.384Z,14.55
2023-05-08T20:15:14.029Z,16.70
2023-05-08T20:17:40.675Z,17.13
2023-05-08T20:20:07.744Z,15.45
2023-05-08T20:22:34.193Z,15.07
2023-05-08T20:25:03.498Z,14.68
2023-05-08T20:27:30.945Z,16.15
2023-05-08T20:29:57.387Z,14.15
2023-05-08T20:32:23.828Z,15.55
2023-05-08T20:34:50.318Z,16.60
2023-05-08T20:37:16.817Z,16.35
2023-05-08T20:39:43.502Z,14.95
2023-05-08T20:42:09.949Z,13.60
2023-05-08T20:44:36.394Z,14.10
2023-05-08T20:47:02.831Z,12.55
2023-05-08T20:49:29.355Z,12.65
2023-05-08T20:51:55.855Z,13.60
2023-05-08T20:54:22.328Z,11.93
2023-05-08T20:56:48.903Z,10.90
2023-05-08T20:59:16.550Z,12.10
2023-05-08T21:01:43.094Z,12.13
2023-05-08T21:04:09.682Z,11.98
2023-05-08T21:06:36.230Z,13.65
2023-05-08T21:09:04.500Z,14.48
2023-05-08T21:11:32.332Z,13.15
2023-05-08T21:13:58.729Z,12.20
2023-05-08T21:16:26.763Z,11.50
2023-05-08T21:18:55.373Z,12.23
2023-05-08T21:21:23.194Z,11.25
2023-05-08T21:23:49.580Z,10.90
2023-05-08T21:26:16.150Z,10.68
2023-05-08T21:28:42.676Z,11.70
2023-05-08T21:31:09.265Z,12.85
2023-05-08T21:33:35.802Z,10.07
2023-05-08T21:36:02.238Z,12.57
2023-05-08T21:38:28.702Z,12.15
2023-05-08T21:40:55.656Z,12.25
2023-05-08T21:43:22.091Z,9.63
2023-05-08T21:45:48.469Z,10.40
2023-05-08T21:48:14.852Z,10.65
2023-05-08T21:50:41.320Z,11.80
2023-05-08T21:53:07.844Z,11.73
2023-05-08T21:55:34.345Z,11.40
2023-05-08T21:58:00.817Z,12.68
2023-05-08T22:00:27.217Z,14.45
2023-05-08T22:02:53.741Z,14.40
2023-05-08T22:05:20.213Z,12.13
2023-05-08T22:07:47.408Z,11.38
2023-05-08T22:10:13.994Z,12.40
2023-05-08T22:12:40.559Z,13.02
2023-05-08T22:15:14.814Z,14.55
2023-05-08T22:17:49.540Z,13.15
2023-05-08T22:20:16.039Z,14.50
2023-05-08T22:22:42.614Z,13.15
2023-05-08T22:25:09.297Z,13.05
2023-05-08T22:27:35.925Z,12.25
2023-05-08T22:30:03.846Z,10.93
2023-05-08T22:32:30.602Z,13.75
2023-05-08T22:34:56.999Z,14.02
2023-05-08T22:37:23.506Z,12.02
2023-05-08T22:39:49.953Z,12.82
2023-05-08T22:42:17.081Z,13.73
2023-05-08T22:44:44.319Z,13.13
2023-05-08T22:47:12.207Z,12.73
2023-05-08T22:49:40.825Z,14.38
2023-05-08T22:52:08.542Z,13.65
2023-05-08T22:54:35.668Z,12.50
2023-05-08T22:57:02.869Z,13.43
2023-05-08T22:59:29.427Z,13.27
2023-05-08T23:01:55.843Z,12.57
2023-05-08T23:04:22.288Z,12.65
2023-05-08T23:06:48.740Z,12.13
2023-05-08T23:09:15.161Z,12.18
2023-05-08T23:11:41.688Z,11.50
2023-05-08T23:14:08.171Z,12.02
2023-05-08T23:16:34.602Z,12.85
2023-05-08T23:19:00.985Z,12.32
2023-05-08T23:21:27.843Z,12.70
2023-05-08T23:23:54.413Z,13.02
2023-05-08T23:26:21.318Z,12.93
2023-05-08T23:28:47.794Z,14.82
2023-05-08T23:31:14.240Z,12.80
2023-05-08T23:33:40.690Z,13.15
2023-05-08T23:36:07.901Z,13.10
2023-05-08T23:38:34.378Z,14.13
2023-05-08T23:41:00.812Z,12.80
2023-05-08T23:43:27.230Z,11.88
2023-05-08T23:45:53.673Z,15.00
2023-05-08T23:48:20.218Z,12.88
2023-05-08T23:50:46.631Z,12.18
2023-05-08T23:53:13.266Z,11.48
2023-05-08T23:55:39.669Z,14.68
2023-05-08T23:58:06.174Z,11.98
